^^
Datos históricos de la estación: Murcia-Puente Tocinos
Diario Informe para Abril 21, 2019 Unidades:  Ambas    Ingés   Métrico
Diario Semanal Mensual Anual
  Máxima: Mínima: Promedio:
Temperatura: 82.9 °F /  28.3 °C 71.4 °F /  21.9 °C 77.2 °F /  25.1 °C
Punto de rocio: 72.5 °F /  22.5 °C 56.1 °F /  13.4 °C 67.8 °F /  19.9 °C
Humedad: 96% 40.4% 75%
Velocidad viento: 13mph /  20.9km/h - 6.4mph /  10.3km/h
Racha viento: 24.2mph /  38.9km/h - -
Viento- - Este
Presión: 30.1 in /  1018.0 hPa 30 in /  1015.6 hPa -
Precipitación: 0.54 in /  13.8 mm    
 
 
Tabla de datos para Abril 21, 2019
Hora Temperatura Punto de rocio Presión Viento Velocidad viento Racha viento Humedad Intensidad lluvia(por hora) Nubes
00:04 78.6 °F /  25.9 °C 69.4 °F /  20.8 °C 30in /  1016.9hPa NO 2.4mph /  3.9km/h 5mph /  8km/h 73.5% 0in /  0.0mm
00:09 78.8 °F /  26 °C 69.3 °F /  20.7 °C 30in /  1016.9hPa NO 2.5mph /  4km/h 5mph /  8km/h 73% 0in /  0.0mm
00:14 78.8 °F /  26 °C 69.4 °F /  20.8 °C 30in /  1016.9hPa NO 2.9mph /  4.7km/h 5.9mph /  9.5km/h 73% 0in /  0.0mm
00:19 78.8 °F /  26 °C 69.4 °F /  20.8 °C 30in /  1016.9hPa NO 2.9mph /  4.7km/h 6mph /  9.7km/h 72.9% 0in /  0.0mm
00:24 78.8 °F /  26 °C 69.3 °F /  20.7 °C 30in /  1016.9hPa NO 2.9mph /  4.7km/h 5.9mph /  9.5km/h 72.5% 0in /  0.0mm
00:29 78.8 °F /  26 °C 69.1 °F /  20.6 °C 30in /  1016.9hPa ONO 2.9mph /  4.7km/h 6mph /  9.7km/h 72.4% 0in /  0.0mm
00:34 78.6 °F /  25.9 °C 69.3 °F /  20.7 °C 30in /  1017.0hPa ONO 2.9mph /  4.7km/h 6mph /  9.7km/h 73% 0in /  0.0mm
00:39 78.6 °F /  25.9 °C 69.3 °F /  20.7 °C 30in /  1017.0hPa NO 2.8mph /  4.5km/h 5.9mph /  9.5km/h 73% 0in /  0.0mm
00:44 78.6 °F /  25.9 °C 69.1 °F /  20.6 °C 30in /  1017.0hPa NO 2.4mph /  3.9km/h 6.9mph /  11.1km/h 72.8% 0in /  0.0mm
00:49 78.4 °F /  25.8 °C 68.7 °F /  20.4 °C 30in /  1017.1hPa NO 2.7mph /  4.3km/h 7mph /  11.3km/h 72% 0in /  0.0mm
00:54 78.4 °F /  25.8 °C 68.7 °F /  20.4 °C 30in /  1017.1hPa ONO 3.6mph /  5.8km/h 5mph /  8km/h 72% 0in /  0.0mm
00:59 78.4 °F /  25.8 °C 68.7 °F /  20.4 °C 30in /  1017.1hPa ONO 3.4mph /  5.5km/h 6.4mph /  10.3km/h 72% 0in /  0.0mm
01:04 78.4 °F /  25.8 °C 68.7 °F /  20.4 °C 30in /  1017.1hPa NO 2.9mph /  4.6km/h 8.1mph /  13km/h 72% 0in /  0.0mm
01:09 78.4 °F /  25.8 °C 68.7 °F /  20.4 °C 30in /  1017.1hPa NO 3.2mph /  5.2km/h 8mph /  12.9km/h 72% 0in /  0.0mm
01:14 78.4 °F /  25.8 °C 68.7 °F /  20.4 °C 30in /  1017.1hPa NO 4.3mph /  6.9km/h 9.2mph /  14.8km/h 72% 0in /  0.0mm
01:19 78.4 °F /  25.8 °C 68.7 °F /  20.4 °C 30in /  1017.1hPa NO 4.5mph /  7.3km/h 9mph /  14.5km/h 72% 0in /  0.0mm
01:24 78.4 °F /  25.8 °C 68.7 °F /  20.4 °C 30in /  1017.1hPa NO 5.2mph /  8.4km/h 8.1mph /  13km/h 72% 0in /  0.0mm
01:29 78.4 °F /  25.8 °C 68.7 °F /  20.4 °C 30in /  1017.1hPa NO 5mph /  8km/h 8.5mph /  13.7km/h 72% 0in /  0.0mm
01:34 78.4 °F /  25.8 °C 68.7 °F /  20.4 °C 30in /  1017.1hPa NO 4.3mph /  6.9km/h 9mph /  14.5km/h 72% 0in /  0.0mm
01:39 78.4 °F /  25.8 °C 68.5 °F /  20.3 °C 30in /  1017.1hPa NO 4.5mph /  7.3km/h 9mph /  14.5km/h 72% 0in /  0.0mm
01:44 78.3 °F /  25.7 °C 68.5 °F /  20.3 °C 30in /  1017.1hPa NO 5.2mph /  8.4km/h 9mph /  14.5km/h 72% 0in /  0.0mm
01:49 78.3 °F /  25.7 °C 68.5 °F /  20.3 °C 30in /  1017.1hPa NO 5mph /  8km/h 8mph /  12.9km/h 72% 0in /  0.0mm
01:54 78.3 °F /  25.7 °C 68.5 °F /  20.3 °C 30in /  1017.1hPa NNO 4.3mph /  6.9km/h 7mph /  11.3km/h 72% 0in /  0.0mm
01:59 78.3 °F /  25.7 °C 68.5 °F /  20.3 °C 30in /  1017.1hPa NNO 4mph /  6.4km/h 7mph /  11.3km/h 72% 0in /  0.0mm
02:04 78.4 °F /  25.8 °C 68.5 °F /  20.3 °C 30in /  1017.1hPa NNE 3.1mph /  5km/h 6.9mph /  11.1km/h 72% 0in /  0.0mm
02:09 78.3 °F /  25.7 °C 68.9 °F /  20.5 °C 30in /  1017.1hPa NE 3.3mph /  5.3km/h 7mph /  11.3km/h 73% 0.01in /  0.3mm
02:14 77.9 °F /  25.5 °C 69.4 °F /  20.8 °C 30in /  1017.1hPa NE 4mph /  6.5km/h 8.5mph /  13.7km/h 75.2% 0.03in /  0.8mm
02:19 77.4 °F /  25.2 °C 70.3 °F /  21.3 °C 30in /  1017.1hPa NE 4.3mph /  6.9km/h 10.4mph /  16.7km/h 79.2% 0.03in /  0.8mm
02:24 76.6 °F /  24.8 °C 70.9 °F /  21.6 °C 30in /  1017.1hPa NE 5.2mph /  8.4km/h 10mph /  16.1km/h 82.4% 0.04in /  1.0mm
02:29 76.3 °F /  24.6 °C 71.2 °F /  21.8 °C 30in /  1017.1hPa NNE 5.3mph /  8.6km/h 10.7mph /  17.2km/h 84.5% 0.04in /  1.0mm
02:34 75.9 °F /  24.4 °C 71.4 °F /  21.9 °C 30in /  1017.1hPa NNE 5.9mph /  9.5km/h 11mph /  17.7km/h 86.2% 0.04in /  1.0mm
02:39 75.7 °F /  24.3 °C 71.6 °F /  22 °C 30in /  1017.1hPa NE 5.5mph /  8.9km/h 8mph /  12.9km/h 87% 0.04in /  1.0mm
02:44 75.6 °F /  24.2 °C 71.6 °F /  22 °C 30in /  1017.1hPa NE 4.3mph /  6.9km/h 6mph /  9.7km/h 87.7% 0.04in /  1.0mm
02:49 75.6 °F /  24.2 °C 71.8 °F /  22.1 °C 30in /  1017.2hPa NE 4mph /  6.5km/h 6.2mph /  10km/h 88% 0.04in /  1.0mm
02:54 75.4 °F /  24.1 °C 71.6 °F /  22 °C 30in /  1017.2hPa NE 3.1mph /  5km/h 6.2mph /  10km/h 88.2% 0.04in /  1.0mm
02:59 75.4 °F /  24.1 °C 72 °F /  22.2 °C 30in /  1017.2hPa NE 3mph /  4.9km/h 6mph /  9.7km/h 89% 0.04in /  1.0mm
03:04 75.4 °F /  24.1 °C 72 °F /  22.2 °C 30in /  1017.2hPa ENE 2.9mph /  4.6km/h 5.2mph /  8.4km/h 89% 0.06in /  1.5mm
03:09 75.4 °F /  24.1 °C 71.8 °F /  22.1 °C 30in /  1017.0hPa Este 2.7mph /  4.3km/h 5mph /  8km/h 89% 0.06in /  1.5mm
03:14 75.2 °F /  24 °C 71.8 °F /  22.1 °C 30in /  1017.0hPa Este 2mph /  3.2km/h 4mph /  6.4km/h 89% 0.05in /  1.2mm
03:19 75.2 °F /  24 °C 71.8 °F /  22.1 °C 30in /  1017.0hPa Este 1.6mph /  2.5km/h 3.1mph /  5km/h 89% 0.03in /  0.7mm
03:24 75.2 °F /  24 °C 72 °F /  22.2 °C 30in /  1016.9hPa Calm   3.5mph /  5.6km/h 89.7% 0.02in /  0.5mm
03:29 75.4 °F /  24.1 °C 72.1 °F /  22.3 °C 30in /  1016.9hPa NNO 0.4mph /  0.7km/h 4.6mph /  7.4km/h 90% 0.02in /  0.5mm
03:34 75.4 °F /  24.1 °C 72.1 °F /  22.3 °C 30in /  1017.0hPa NNO 1.8mph /  2.9km/h 5mph /  8km/h 90% 0.02in /  0.5mm
03:39 75.4 °F /  24.1 °C 72.1 °F /  22.3 °C 30in /  1017.0hPa NNO 1.9mph /  3km/h 4mph /  6.4km/h 90% 0.02in /  0.5mm
03:44 75.2 °F /  24 °C 72.1 °F /  22.3 °C 30in /  1017.0hPa NO 2mph /  3.2km/h 4mph /  6.4km/h 90% 0.02in /  0.5mm
03:49 75.2 °F /  24 °C 72 °F /  22.2 °C 30in /  1017.0hPa NO 1.9mph /  3km/h 3.6mph /  5.8km/h 90% 0.02in /  0.5mm
03:54 75 °F /  23.9 °C 72 °F /  22.2 °C 30in /  1016.8hPa NNO 1.4mph /  2.2km/h 4mph /  6.4km/h 90% 0.02in /  0.5mm
03:59 75 °F /  23.9 °C 71.8 °F /  22.1 °C 30in /  1016.8hPa NNO 1.5mph /  2.4km/h 3.6mph /  5.8km/h 90% 0.02in /  0.5mm
04:04 74.8 °F /  23.8 °C 71.8 °F /  22.1 °C 30in /  1016.9hPa NNO 1.8mph /  2.9km/h 4mph /  6.4km/h 90% 0.02in /  0.5mm
04:09 74.8 °F /  23.8 °C 71.8 °F /  22.1 °C 30in /  1016.9hPa NNO 1.4mph /  2.2km/h 2mph /  3.2km/h 90% 0in /  0.0mm
04:14 75 °F /  23.9 °C 72 °F /  22.2 °C 30in /  1016.9hPa Calm   4.6mph /  7.4km/h 90% 0in /  0.0mm
04:19 75 °F /  23.9 °C 72 °F /  22.2 °C 30in /  1017.0hPa Calm   5mph /  8km/h 90% 0in /  0.0mm
04:24 75 °F /  23.9 °C 72 °F /  22.2 °C 30in /  1017.0hPa Calm   4.7mph /  7.6km/h 90% 0in /  0.0mm
04:29 75 °F /  23.9 °C 72 °F /  22.2 °C 30in /  1017.0hPa ENE 0.4mph /  0.7km/h 5mph /  8km/h 90% 0.01in /  0.3mm
04:34 75 °F /  23.9 °C 72 °F /  22.2 °C 30in /  1017.0hPa NE 2mph /  3.2km/h 5mph /  8km/h 90.1% 0.01in /  0.3mm
04:39 75 °F /  23.9 °C 72 °F /  22.2 °C 30in /  1016.9hPa NE 2mph /  3.2km/h 5mph /  8km/h 90.6% 0.02in /  0.5mm
04:44 74.8 °F /  23.8 °C 72 °F /  22.2 °C 30in /  1016.9hPa NE 2mph /  3.2km/h 5mph /  8km/h 91% 0.03in /  0.8mm
04:49 74.8 °F /  23.8 °C 72 °F /  22.2 °C 30in /  1016.9hPa NE 1.6mph /  2.5km/h 2.4mph /  3.9km/h 91% 0.03in /  0.8mm
04:54 74.8 °F /  23.8 °C 72 °F /  22.2 °C 30in /  1016.9hPa Calm   3.5mph /  5.6km/h 91% 0.03in /  0.8mm
04:59 74.8 °F /  23.8 °C 72.1 °F /  22.3 °C 30in /  1016.9hPa North 0.4mph /  0.6km/h 3.6mph /  5.8km/h 91.6% 0.03in /  0.8mm
05:04 74.8 °F /  23.8 °C 72.3 °F /  22.4 °C 30in /  1016.9hPa NNE 1.4mph /  2.2km/h 7.6mph /  12.2km/h 91.8% 0.03in /  0.8mm
05:09 74.7 °F /  23.7 °C 72.1 °F /  22.3 °C 30in /  1016.9hPa NNE 2.1mph /  3.4km/h 11.5mph /  18.5km/h 91.8% 0.03in /  0.8mm
05:14 74.3 °F /  23.5 °C 71.6 °F /  22 °C 30in /  1016.9hPa NNE 4.7mph /  7.6km/h 15.2mph /  24.5km/h 91.5% 0.03in /  0.8mm
05:19 73.8 °F /  23.2 °C 71.2 °F /  21.8 °C 30in /  1017.1hPa NE 5.3mph /  8.5km/h 15mph /  24.1km/h 91.9% 0.04in /  1.1mm
05:24 73.6 °F /  23.1 °C 71.2 °F /  21.8 °C 30in /  1017.1hPa NNE 7.4mph /  11.9km/h 15mph /  24.1km/h 92.6% 0.05in /  1.3mm
05:29 73.6 °F /  23.1 °C 71.4 °F /  21.9 °C 30in /  1017.1hPa NNE 7.1mph /  11.4km/h 10.2mph /  16.4km/h 93% 0.05in /  1.3mm
05:34 73.2 °F /  22.9 °C 71.2 °F /  21.8 °C 30in /  1017.1hPa NNE 6.2mph /  10km/h 11.8mph /  19km/h 93.1% 0.06in /  1.5mm
05:39 73 °F /  22.8 °C 71.2 °F /  21.8 °C 30in /  1017.0hPa NNE 6.3mph /  10.2km/h 12.7mph /  20.4km/h 93.7% 0.06in /  1.6mm
05:44 73 °F /  22.8 °C 71.1 °F /  21.7 °C 30in /  1017.0hPa NNE 6.9mph /  11.1km/h 13mph /  20.9km/h 94% 0.06in /  1.5mm
05:49 72.9 °F /  22.7 °C 71.1 °F /  21.7 °C 30in /  1017.0hPa NNE 6.8mph /  10.9km/h 11mph /  17.7km/h 94% 0.06in /  1.5mm
05:54 72.9 °F /  22.7 °C 71.1 °F /  21.7 °C 30in /  1017.0hPa NNE 6.2mph /  10km/h 10mph /  16.1km/h 94% 0.07in /  1.8mm
05:59 72.9 °F /  22.7 °C 71.1 °F /  21.7 °C 30in /  1017.0hPa NNE 5.7mph /  9.1km/h 7.4mph /  11.9km/h 94% 0.08in /  2.1mm
06:04 72.9 °F /  22.7 °C 71.2 °F /  21.8 °C 30in /  1017.0hPa NNE 4.3mph /  6.9km/h 7mph /  11.3km/h 94.9% 0.08in /  2.1mm
06:09 72.9 °F /  22.7 °C 71.2 °F /  21.8 °C 30in /  1017.0hPa NNE 4.2mph /  6.8km/h 7.4mph /  11.9km/h 95% 0.09in /  2.3mm
06:14 72.9 °F /  22.7 °C 71.2 °F /  21.8 °C 30in /  1017.0hPa NNE 4mph /  6.5km/h 8.5mph /  13.7km/h 95% 0.09in /  2.3mm
06:19 72.9 °F /  22.7 °C 71.2 °F /  21.8 °C 30in /  1017.0hPa NNE 4.2mph /  6.7km/h 9mph /  14.5km/h 95% 0.1in /  2.6mm
06:24 72.9 °F /  22.7 °C 71.2 °F /  21.8 °C 30in /  1016.9hPa NNE 4.7mph /  7.6km/h 8mph /  12.9km/h 95% 0.09in /  2.3mm
06:29 72.9 °F /  22.7 °C 71.2 °F /  21.8 °C 30in /  1016.9hPa NNE 4.5mph /  7.3km/h 7mph /  11.3km/h 95% 0.1in /  2.5mm
06:34 72.9 °F /  22.7 °C 71.4 °F /  21.9 °C 30in /  1016.9hPa NNE 4mph /  6.5km/h 7mph /  11.3km/h 95% 0.13in /  3.4mm
06:39 73 °F /  22.8 °C 71.4 °F /  21.9 °C 30in /  1016.9hPa NNE 4.1mph /  6.6km/h 8.1mph /  13km/h 95% 0.14in /  3.6mm
06:44 72.9 °F /  22.7 °C 71.2 °F /  21.8 °C 30in /  1016.9hPa NNE 4.3mph /  6.9km/h 9.7mph /  15.6km/h 95% 0.14in /  3.6mm
06:49 72.9 °F /  22.7 °C 71.2 °F /  21.8 °C 30in /  1017.0hPa NNE 4.4mph /  7.1km/h 10mph /  16.1km/h 95% 0.14in /  3.6mm
06:54 72.7 °F /  22.6 °C 71.2 °F /  21.8 °C 30in /  1017.0hPa NE 4.7mph /  7.6km/h 20.8mph /  33.5km/h 95% 0.14in /  3.6mm
06:59 72.7 °F /  22.6 °C 71.2 °F /  21.8 °C 30in /  1017.0hPa NE 6mph /  9.6km/h 21mph /  33.8km/h 95% 0.13in /  3.3mm
07:04 72.5 °F /  22.5 °C 71.1 °F /  21.7 °C 30in /  1017.1hPa NE 9.2mph /  14.8km/h 17.3mph /  27.8km/h 95% 0.12in /  3.0mm
07:09 72.1 °F /  22.3 °C 70.7 °F /  21.5 °C 30in /  1017.1hPa NE 9.5mph /  15.3km/h 19.6mph /  31.5km/h 95% 0.12in /  3.0mm
07:14 72 °F /  22.2 °C 70.3 °F /  21.3 °C 30in /  1017.1hPa NE 10.7mph /  17.2km/h 20mph /  32.2km/h 95% 0.11in /  2.8mm
07:19 72 °F /  22.2 °C 70.3 °F /  21.3 °C 30in /  1017.2hPa NE 10.4mph /  16.7km/h 15mph /  24.1km/h 95% 0.1in /  2.5mm
07:24 72 °F /  22.2 °C 70.3 °F /  21.3 °C 30in /  1017.2hPa NE 9.2mph /  14.8km/h 15.6mph /  25.1km/h 95% 0.11in /  2.8mm
07:29 71.8 °F /  22.1 °C 70.3 °F /  21.3 °C 30in /  1017.2hPa NE 9.2mph /  14.8km/h 16.1mph /  25.9km/h 95% 0.1in /  2.6mm
07:34 71.8 °F /  22.1 °C 70.3 °F /  21.3 °C 30in /  1017.4hPa NE 9.2mph /  14.8km/h 15mph /  24.1km/h 95% 0.07in /  1.8mm
07:39 71.8 °F /  22.1 °C 70.3 °F /  21.3 °C 30in /  1017.4hPa NE 8.5mph /  13.7km/h 11mph /  17.7km/h 95% 0.06in /  1.5mm
07:44 71.6 °F /  22 °C 70 °F /  21.1 °C 30in /  1017.4hPa NE 6.2mph /  10km/h 10mph /  16.1km/h 95% 0.07in /  1.8mm
07:49 71.4 °F /  21.9 °C 70 °F /  21.1 °C 30in /  1017.4hPa NE 6.2mph /  9.9km/h 9.7mph /  15.6km/h 95% 0.07in /  1.8mm
07:54 71.4 °F /  21.9 °C 70 °F /  21.1 °C 30in /  1017.3hPa NE 5.9mph /  9.5km/h 10mph /  16.1km/h 95% 0.07in /  1.8mm
07:59 71.4 °F /  21.9 °C 70 °F /  21.1 °C 30in /  1017.3hPa NNE 5.5mph /  8.8km/h 9mph /  14.5km/h 95% 0.08in /  2.1mm
08:04 71.6 °F /  22 °C 70.2 °F /  21.2 °C 30in /  1017.4hPa NE 4.3mph /  6.9km/h 7mph /  11.3km/h 95% 0.08in /  2.1mm
08:09 71.8 °F /  22.1 °C 70.3 °F /  21.3 °C 30in /  1017.4hPa NE 4.2mph /  6.8km/h 7mph /  11.3km/h 95% 0.09in /  2.3mm
08:14 72 °F /  22.2 °C 70.7 °F /  21.5 °C 30in /  1017.4hPa NNE 4mph /  6.5km/h 7mph /  11.3km/h 95.8% 0.09in /  2.3mm
08:19 72.1 °F /  22.3 °C 70.9 °F /  21.6 °C 30in /  1017.4hPa NNE 3.9mph /  6.3km/h 7.4mph /  11.9km/h 96% 0.1in /  2.6mm
08:24 72.1 °F /  22.3 °C 70.9 °F /  21.6 °C 30in /  1017.4hPa NE 3.6mph /  5.8km/h 8.1mph /  13km/h 96% 0.1in /  2.6mm
08:29 72.3 °F /  22.4 °C 71.1 °F /  21.7 °C 30in /  1017.4hPa NE 3.7mph /  6km/h 8mph /  12.9km/h 96% 0.09in /  2.3mm
08:34 72.5 °F /  22.5 °C 71.2 °F /  21.8 °C 30.1in /  1017.6hPa NE 4.3mph /  6.9km/h 7mph /  11.3km/h 96% 0.09in /  2.3mm
08:39 72.7 °F /  22.6 °C 71.4 °F /  21.9 °C 30.1in /  1017.6hPa NE 4.3mph /  6.9km/h 9.7mph /  15.6km/h 96% 0.08in /  2.1mm
08:44 72.9 °F /  22.7 °C 71.6 °F /  22 °C 30.1in /  1017.6hPa NE 4.3mph /  6.9km/h 10mph /  16.1km/h 96% 0.07in /  1.8mm
08:49 72.9 °F /  22.7 °C 71.6 °F /  22 °C 30.1in /  1017.6hPa NE 4.5mph /  7.3km/h 11.8mph /  19km/h 96% 0.07in /  1.8mm
08:54 72.7 °F /  22.6 °C 71.4 °F /  21.9 °C 30.1in /  1017.5hPa NE 5.4mph /  8.7km/h 12.7mph /  20.4km/h 96% 0.06in /  1.6mm
08:59 72.9 °F /  22.7 °C 71.6 °F /  22 °C 30.1in /  1017.5hPa NE 6.2mph /  9.9km/h 14mph /  22.5km/h 96% 0.06in /  1.6mm
09:04 72.7 °F /  22.6 °C 71.4 °F /  21.9 °C 30.1in /  1017.5hPa NE 8.1mph /  13km/h 18.5mph /  29.8km/h 95.3% 0.05in /  1.3mm
09:09 72.5 °F /  22.5 °C 71.1 °F /  21.7 °C 30in /  1017.3hPa NE 8.7mph /  14km/h 21.3mph /  34.3km/h 95% 0.07in /  1.8mm
09:14 72.3 °F /  22.4 °C 70.9 °F /  21.6 °C 30in /  1017.3hPa NE 10.7mph /  17.2km/h 21mph /  33.8km/h 95% 0.07in /  1.8mm
09:19 72.3 °F /  22.4 °C 70.9 °F /  21.6 °C 30in /  1017.4hPa NE 10.4mph /  16.7km/h 15mph /  24.1km/h 95% 0.07in /  1.8mm
09:24 72.3 °F /  22.4 °C 70.9 °F /  21.6 °C 30in /  1017.4hPa NE 9.2mph /  14.8km/h 15mph /  24.1km/h 95% 0.06in /  1.5mm
09:29 72.5 °F /  22.5 °C 70.9 °F /  21.6 °C 30in /  1017.4hPa NE 8.8mph /  14.1km/h 13mph /  20.9km/h 95% 0.1in /  2.5mm
09:34 72.5 °F /  22.5 °C 71.1 °F /  21.7 °C 30.1in /  1017.5hPa NE 7.4mph /  11.9km/h 12mph /  19.3km/h 95% 0.11in /  2.8mm
09:39 72.5 °F /  22.5 °C 71.1 °F /  21.7 °C 30.1in /  1017.5hPa NE 7mph /  11.3km/h 10mph /  16.1km/h 95% 0.12in /  3.1mm
09:44 72.7 °F /  22.6 °C 71.1 °F /  21.7 °C 30.1in /  1017.5hPa NE 5.9mph /  9.5km/h 10mph /  16.1km/h 95% 0.1in /  2.6mm
09:49 72.7 °F /  22.6 °C 71.2 °F /  21.8 °C 30.1in /  1017.6hPa ENE 5.5mph /  8.9km/h 9.2mph /  14.8km/h 95% 0.1in /  2.6mm
09:54 72.7 °F /  22.6 °C 71.2 °F /  21.8 °C 30.1in /  1017.6hPa NE 4.3mph /  6.9km/h 9mph /  14.5km/h 95% 0.11in /  2.8mm
09:59 72.9 °F /  22.7 °C 71.2 °F /  21.8 °C 30.1in /  1017.6hPa ESE 4.2mph /  6.8km/h 7mph /  11.3km/h 95% 0.12in /  3.0mm
10:04 72.9 °F /  22.7 °C 71.4 °F /  21.9 °C 30.1in /  1017.6hPa ENE 4mph /  6.5km/h 7mph /  11.3km/h 95.1% 0.12in /  3.0mm
10:09 73 °F /  22.8 °C 71.8 °F /  22.1 °C 30.1in /  1017.5hPa ENE 3.6mph /  5.8km/h 6mph /  9.7km/h 95.8% 0.11in /  2.8mm
10:14 73 °F /  22.8 °C 71.6 °F /  22 °C 30.1in /  1017.5hPa NE 2.4mph /  3.9km/h 5mph /  8km/h 95.4% 0.09in /  2.3mm
10:19 73.2 °F /  22.9 °C 71.8 °F /  22.1 °C 30.1in /  1017.5hPa NNE 2.4mph /  3.9km/h 5.8mph /  9.3km/h 95.1% 0.09in /  2.3mm
10:24 73.2 °F /  22.9 °C 71.8 °F /  22.1 °C 30.1in /  1017.5hPa NE 2.4mph /  3.9km/h 6mph /  9.7km/h 95.3% 0.09in /  2.3mm
10:29 73.4 °F /  23 °C 72 °F /  22.2 °C 30.1in /  1017.5hPa NE 2.5mph /  4km/h 6.2mph /  10km/h 95.2% 0.08in /  2.0mm
10:34 73.6 °F /  23.1 °C 72.1 °F /  22.3 °C 30.1in /  1017.5hPa NNE 2.9mph /  4.7km/h 6mph /  9.7km/h 95% 0.05in /  1.3mm
10:39 73.8 °F /  23.2 °C 72.1 °F /  22.3 °C 30in /  1017.4hPa NNE 3mph /  4.9km/h 6.9mph /  11.1km/h 95% 0.04in /  1.0mm
10:44 74.1 °F /  23.4 °C 72.5 °F /  22.5 °C 30in /  1017.4hPa NE 3.6mph /  5.8km/h 11.8mph /  19km/h 95% 0.03in /  0.7mm
10:49 74.3 °F /  23.5 °C 72.5 °F /  22.5 °C 30.1in /  1017.5hPa NE 4.3mph /  7km/h 13.8mph /  22.2km/h 94.2% 0.03in /  0.7mm
10:54 74.7 °F /  23.7 °C 72.5 °F /  22.5 °C 30.1in /  1017.5hPa NE 6.9mph /  11.1km/h 14mph /  22.5km/h 92.7% 0.02in /  0.5mm
10:59 75 °F /  23.9 °C 72.1 °F /  22.3 °C 30.1in /  1017.5hPa NNE 7.3mph /  11.8km/h 17.3mph /  27.8km/h 90.5% 0.01in /  0.2mm
11:04 75.4 °F /  24.1 °C 71.8 °F /  22.1 °C 30.1in /  1017.6hPa NNE 8.5mph /  13.7km/h 17mph /  27.4km/h 88.4% 0in /  0.0mm
11:09 75.6 °F /  24.2 °C 71.6 °F /  22 °C 30.1in /  1017.6hPa NE 8.3mph /  13.3km/h 15.9mph /  25.6km/h 87.3% 0in /  0.0mm
11:14 75.7 °F /  24.3 °C 71.1 °F /  21.7 °C 30.1in /  1017.6hPa NNE 7.6mph /  12.2km/h 16.1mph /  25.9km/h 85.5% 0in /  0.0mm
11:19 75.9 °F /  24.4 °C 70.7 °F /  21.5 °C 30.1in /  1017.7hPa NE 8.3mph /  13.4km/h 19.7mph /  31.7km/h 84% 0in /  0.0mm
11:24 76.3 °F /  24.6 °C 70.5 °F /  21.4 °C 30.1in /  1017.7hPa NE 10.7mph /  17.2km/h 20mph /  32.2km/h 82.2% 0in /  0.0mm
11:29 76.5 °F /  24.7 °C 70.5 °F /  21.4 °C 30.1in /  1017.7hPa NE 10.9mph /  17.6km/h 19mph /  30.6km/h 82.1% 0in /  0.0mm
11:34 76.3 °F /  24.6 °C 70.5 °F /  21.4 °C 30.1in /  1017.9hPa NNE 11.8mph /  19km/h 19.7mph /  31.7km/h 82.7% 0in /  0.0mm
11:39 75.9 °F /  24.4 °C 70.5 °F /  21.4 °C 30.1in /  1017.9hPa NE 11.9mph /  19.2km/h 20mph /  32.2km/h 83.2% 0in /  0.0mm
11:44 75.7 °F /  24.3 °C 70.7 °F /  21.5 °C 30.1in /  1017.9hPa NNE 12.3mph /  19.8km/h 20mph /  32.2km/h 84.1% 0in /  0.0mm
11:49 75.9 °F /  24.4 °C 71.1 °F /  21.7 °C 30.1in /  1017.9hPa NE 11.7mph /  18.9km/h 17mph /  27.4km/h 85% 0in /  0.0mm
11:54 76.3 °F /  24.6 °C 71.2 °F /  21.8 °C 30.1in /  1017.9hPa NE 10mph /  16.1km/h 17.5mph /  28.2km/h 84.4% 0in /  0.0mm
11:59 76.8 °F /  24.9 °C 71.2 °F /  21.8 °C 30.1in /  1017.9hPa NE 10mph /  16.1km/h 17mph /  27.4km/h 83.2% 0in /  0.0mm
12:04 77.2 °F /  25.1 °C 71.1 °F /  21.7 °C 30.1in /  1017.9hPa NE 10mph /  16.1km/h 17.3mph /  27.8km/h 81.6% 0in /  0.0mm
12:09 77.5 °F /  25.3 °C 71.1 °F /  21.7 °C 30.1in /  1017.8hPa NE 10.1mph /  16.2km/h 20.7mph /  33.3km/h 80.4% 0in /  0.0mm
12:14 77.9 °F /  25.5 °C 70.9 °F /  21.6 °C 30.1in /  1017.8hPa NE 10.2mph /  16.4km/h 21mph /  33.8km/h 78.9% 0in /  0.0mm
12:19 78.4 °F /  25.8 °C 70.5 °F /  21.4 °C 30.1in /  1017.8hPa NE 10.6mph /  17km/h 21.9mph /  35.2km/h 76.7% 0in /  0.0mm
12:24 78.6 °F /  25.9 °C 70 °F /  21.1 °C 30.1in /  1017.7hPa NE 11.8mph /  19km/h 22mph /  35.4km/h 74.9% 0in /  0.0mm
12:29 78.6 °F /  25.9 °C 69.6 °F /  20.9 °C 30.1in /  1017.7hPa NE 11.9mph /  19.2km/h 20mph /  32.2km/h 74.1% 0in /  0.0mm
12:34 78.8 °F /  26 °C 69.8 °F /  21 °C 30.1in /  1017.7hPa NE 12.3mph /  19.8km/h 19mph /  30.6km/h 73.7% 0in /  0.0mm
12:39 79.3 °F /  26.3 °C 69.6 °F /  20.9 °C 30.1in /  1017.5hPa NE 12.3mph /  19.8km/h 19mph /  30.6km/h 72.3% 0in /  0.0mm
12:44 79.3 °F /  26.3 °C 69.1 °F /  20.6 °C 30.1in /  1017.5hPa NE 12.3mph /  19.8km/h 19.7mph /  31.7km/h 71% 0in /  0.0mm
12:49 79.3 °F /  26.3 °C 69.1 °F /  20.6 °C 30.1in /  1017.5hPa NE 11.9mph /  19.2km/h 20mph /  32.2km/h 70.9% 0in /  0.0mm
12:54 79.5 °F /  26.4 °C 68.7 °F /  20.4 °C 30.1in /  1017.5hPa NE 10.7mph /  17.2km/h 18.5mph /  29.8km/h 69.7% 0in /  0.0mm
12:59 79.7 °F /  26.5 °C 68.7 °F /  20.4 °C 30.1in /  1017.5hPa NE 10.6mph /  17km/h 19mph /  30.6km/h 69.2% 0in /  0.0mm
13:04 80.2 °F /  26.8 °C 68.9 °F /  20.5 °C 30.1in /  1017.5hPa ENE 10.2mph /  16.4km/h 18.4mph /  29.6km/h 68.3% 0in /  0.0mm
13:09 80.4 °F /  26.9 °C 68.7 °F /  20.4 °C 30in /  1017.4hPa NE 10.3mph /  16.6km/h 18.4mph /  29.6km/h 67.7% 0in /  0.0mm
13:14 80.6 °F /  27 °C 68.4 °F /  20.2 °C 30in /  1017.4hPa NE 10.7mph /  17.2km/h 19.2mph /  30.9km/h 66.5% 0in /  0.0mm
13:19 80.2 °F /  26.8 °C 67.6 °F /  19.8 °C 30in /  1017.4hPa NE 11.1mph /  17.8km/h 22.3mph /  35.9km/h 65.6% 0in /  0.0mm
13:24 80.2 °F /  26.8 °C 68 °F /  20 °C 30in /  1017.4hPa NE 12.3mph /  19.8km/h 22mph /  35.4km/h 66.6% 0in /  0.0mm
13:29 80.2 °F /  26.8 °C 67.6 °F /  19.8 °C 30in /  1017.4hPa NE 12.3mph /  19.8km/h 21mph /  33.8km/h 65.2% 0in /  0.0mm
13:34 80.2 °F /  26.8 °C 67.3 °F /  19.6 °C 30in /  1017.4hPa ENE 12.3mph /  19.8km/h 21mph /  33.8km/h 64.9% 0in /  0.0mm
13:39 80.1 °F /  26.7 °C 67.5 °F /  19.7 °C 30in /  1017.3hPa NE 12.1mph /  19.4km/h 18mph /  29km/h 65.4% 0in /  0.0mm
13:44 80.1 °F /  26.7 °C 67.1 °F /  19.5 °C 30in /  1017.3hPa NE 11.2mph /  18km/h 21.3mph /  34.3km/h 64.9% 0in /  0.0mm
13:49 80.1 °F /  26.7 °C 67.3 °F /  19.6 °C 30in /  1017.3hPa NE 11.5mph /  18.5km/h 21mph /  33.8km/h 65.2% 0in /  0.0mm
13:54 79.9 °F /  26.6 °C 67.3 °F /  19.6 °C 30in /  1017.2hPa NE 12.5mph /  20.1km/h 22.3mph /  35.9km/h 65.4% 0in /  0.0mm
13:59 79.9 °F /  26.6 °C 67.1 °F /  19.5 °C 30in /  1017.2hPa NE 12.3mph /  19.8km/h 22mph /  35.4km/h 65% 0in /  0.0mm
14:04 80.1 °F /  26.7 °C 67.6 °F /  19.8 °C 30in /  1017.2hPa NE 11.8mph /  19km/h 22mph /  35.4km/h 65.9% 0in /  0.0mm
14:09 80.1 °F /  26.7 °C 67.3 °F /  19.6 °C 30in /  1017.1hPa NE 10.9mph /  17.5km/h 17.5mph /  28.2km/h 65.2% 0in /  0.0mm
14:14 79.9 °F /  26.6 °C 66.7 °F /  19.3 °C 30in /  1017.1hPa NE 8.1mph /  13km/h 17.3mph /  27.8km/h 64.3% 0in /  0.0mm
14:19 80.1 °F /  26.7 °C 66.7 °F /  19.3 °C 30in /  1017.1hPa NE 8.7mph /  14km/h 18.5mph /  29.8km/h 64.2% 0in /  0.0mm
14:24 80.1 °F /  26.7 °C 66 °F /  18.9 °C 30in /  1017.1hPa NE 10.7mph /  17.2km/h 19mph /  30.6km/h 62.3% 0in /  0.0mm
14:29 80.2 °F /  26.8 °C 66.4 °F /  19.1 °C 30in /  1017.1hPa NE 10.9mph /  17.5km/h 19.6mph /  31.5km/h 63% 0in /  0.0mm
14:34 80.4 °F /  26.9 °C 66.6 °F /  19.2 °C 30in /  1017.2hPa NE 11.4mph /  18.4km/h 20mph /  32.2km/h 62.7% 0in /  0.0mm
14:39 80.2 °F /  26.8 °C 66.6 °F /  19.2 °C 30in /  1017.2hPa NE 11.1mph /  17.9km/h 18.4mph /  29.6km/h 63% 0in /  0.0mm
14:44 80.2 °F /  26.8 °C 66.7 °F /  19.3 °C 30in /  1017.2hPa NE 10.2mph /  16.4km/h 18.5mph /  29.8km/h 63.6% 0in /  0.0mm
14:49 80.2 °F /  26.8 °C 66.4 °F /  19.1 °C 30in /  1017.2hPa NE 10mph /  16.1km/h 19mph /  30.6km/h 62.7% 0in /  0.0mm
14:54 80.4 °F /  26.9 °C 66.6 °F /  19.2 °C 30in /  1017.1hPa ENE 9.2mph /  14.8km/h 16mph /  25.7km/h 62.8% 0in /  0.0mm
14:59 80.8 °F /  27.1 °C 67.1 °F /  19.5 °C 30in /  1017.1hPa NE 8.8mph /  14.1km/h 15mph /  24.1km/h 63.3% 0in /  0.0mm
15:04 81 °F /  27.2 °C 66.4 °F /  19.1 °C 30in /  1017.1hPa NE 7.4mph /  11.9km/h 16.3mph /  26.2km/h 61.6% 0in /  0.0mm
15:09 80.8 °F /  27.1 °C 65.7 °F /  18.7 °C 30in /  1017.0hPa ENE 8mph /  12.8km/h 16.1mph /  25.9km/h 60.1% 0in /  0.0mm
15:14 80.8 °F /  27.1 °C 64.9 °F /  18.3 °C 30in /  1017.0hPa NE 9.7mph /  15.6km/h 16.1mph /  25.9km/h 58.8% 0in /  0.0mm
15:19 81 °F /  27.2 °C 64.6 °F /  18.1 °C 30in /  1017.0hPa NE 9.9mph /  16km/h 19.6mph /  31.5km/h 57.7% 0in /  0.0mm
15:24 81.1 °F /  27.3 °C 64.8 °F /  18.2 °C 30in /  1016.8hPa NE 10.7mph /  17.2km/h 20.7mph /  33.3km/h 57.6% 0in /  0.0mm
15:29 81.3 °F /  27.4 °C 64.6 °F /  18.1 °C 30in /  1016.8hPa NE 10.8mph /  17.4km/h 21mph /  33.8km/h 56.8% 0in /  0.0mm
15:34 81.3 °F /  27.4 °C 65.3 °F /  18.5 °C 30in /  1016.8hPa NE 11.2mph /  18km/h 20.8mph /  33.5km/h 58.1% 0in /  0.0mm
15:39 81.7 °F /  27.6 °C 64.9 °F /  18.3 °C 30in /  1016.5hPa NE 11.2mph /  18km/h 21mph /  33.8km/h 57.1% 0in /  0.0mm
15:44 81.7 °F /  27.6 °C 64 °F /  17.8 °C 30in /  1016.5hPa NE 11.2mph /  18km/h 21mph /  33.8km/h 55.1% 0in /  0.0mm
15:49 81.9 °F /  27.7 °C 64.9 °F /  18.3 °C 30in /  1016.5hPa NE 11.1mph /  17.9km/h 20mph /  32.2km/h 56.6% 0in /  0.0mm
15:54 81.7 °F /  27.6 °C 65.3 °F /  18.5 °C 30in /  1016.3hPa NE 10.7mph /  17.2km/h 20.7mph /  33.3km/h 57.8% 0in /  0.0mm
15:59 81.7 °F /  27.6 °C 64.2 °F /  17.9 °C 30in /  1016.3hPa NE 11.3mph /  18.2km/h 22.3mph /  35.9km/h 55.6% 0in /  0.0mm
16:04 81.9 °F /  27.7 °C 64.8 °F /  18.2 °C 30in /  1016.3hPa NE 13mph /  20.9km/h 22mph /  35.4km/h 56.4% 0in /  0.0mm
16:09 82 °F /  27.8 °C 65.3 °F /  18.5 °C 30in /  1016.1hPa NE 12.3mph /  19.8km/h 20.1mph /  32.3km/h 57% 0in /  0.0mm
16:14 82 °F /  27.8 °C 65.1 °F /  18.4 °C 30in /  1016.1hPa ENE 10mph /  16.1km/h 21mph /  33.8km/h 56.8% 0in /  0.0mm
16:19 81.9 °F /  27.7 °C 65.3 °F /  18.5 °C 30in /  1016.1hPa NE 10.1mph /  16.2km/h 21mph /  33.8km/h 57.5% 0in /  0.0mm
16:24 81.9 °F /  27.7 °C 64.8 °F /  18.2 °C 30in /  1016.0hPa NE 10.2mph /  16.4km/h 18.1mph /  29.1km/h 56.2% 0in /  0.0mm
16:29 82 °F /  27.8 °C 63.1 °F /  17.3 °C 30in /  1016.0hPa NE 10.3mph /  16.6km/h 24.2mph /  38.9km/h 52.8% 0in /  0.0mm
16:34 82.2 °F /  27.9 °C 62.4 °F /  16.9 °C 30in /  1016.0hPa NE 10.7mph /  17.2km/h 24.2mph /  38.9km/h 51.2% 0in /  0.0mm
16:39 82.6 °F /  28.1 °C 63.5 °F /  17.5 °C 30in /  1015.9hPa NE 10.7mph /  17.2km/h 19mph /  30.6km/h 52.8% 0in /  0.0mm
16:44 82.2 °F /  27.9 °C 63.9 °F /  17.7 °C 30in /  1015.9hPa ENE 10.7mph /  17.2km/h 19mph /  30.6km/h 53.9% 0in /  0.0mm
16:49 82.4 °F /  28 °C 63.9 °F /  17.7 °C 30in /  1015.9hPa ENE 10.4mph /  16.8km/h 19mph /  30.6km/h 53.6% 0in /  0.0mm
16:54 82.2 °F /  27.9 °C 63.3 °F /  17.4 °C 30in /  1015.9hPa ENE 9.7mph /  15.6km/h 20.8mph /  33.5km/h 53% 0in /  0.0mm
16:59 82 °F /  27.8 °C 62.6 °F /  17 °C 30in /  1015.9hPa ENE 9.9mph /  16km/h 23mph /  37km/h 51.8% 0in /  0.0mm
17:04 82 °F /  27.8 °C 60.4 °F /  15.8 °C 30in /  1015.9hPa NE 10.7mph /  17.2km/h 23mph /  37km/h 48.1% 0in /  0.0mm
17:09 82 °F /  27.8 °C 59.5 °F /  15.3 °C 30in /  1015.8hPa ENE 10.9mph /  17.6km/h 23mph /  37km/h 46.3% 0in /  0.0mm
17:14 82.6 °F /  28.1 °C 57 °F /  13.9 °C 30in /  1015.8hPa ENE 11.8mph /  19km/h 21.3mph /  34.3km/h 41.9% 0in /  0.0mm
17:19 82.6 °F /  28.1 °C 56.1 °F /  13.4 °C 30in /  1015.8hPa ENE 11.1mph /  17.9km/h 21mph /  33.8km/h 40.4% 0in /  0.0mm
17:24 82.9 °F /  28.3 °C 56.8 °F /  13.8 °C 30in /  1015.7hPa NE 8.7mph /  14km/h 18.1mph /  29.1km/h 41% 0in /  0.0mm
17:29 82.8 °F /  28.2 °C 57.9 °F /  14.4 °C 30in /  1015.7hPa NE 8.7mph /  14km/h 18.4mph /  29.6km/h 42.9% 0in /  0.0mm
17:34 82.8 °F /  28.2 °C 58.1 °F /  14.5 °C 30in /  1015.9hPa ENE 8.7mph /  14km/h 18.4mph /  29.6km/h 43.3% 0in /  0.0mm
17:39 82.6 °F /  28.1 °C 58.3 °F /  14.6 °C 30in /  1015.9hPa NE 8.7mph /  14km/h 18mph /  29km/h 43.6% 0in /  0.0mm
17:44 82.2 °F /  27.9 °C 58.3 °F /  14.6 °C 30in /  1015.9hPa NE 8.7mph /  14km/h 17.3mph /  27.8km/h 44.2% 0in /  0.0mm
17:49 82.6 °F /  28.1 °C 58.6 °F /  14.8 °C 30in /  1015.9hPa NE 9.3mph /  14.9km/h 18.5mph /  29.8km/h 44.2% 0in /  0.0mm
17:54 82.4 °F /  28 °C 59.2 °F /  15.1 °C 30in /  1015.9hPa ENE 11.2mph /  18km/h 19mph /  30.6km/h 45.4% 0in /  0.0mm
17:59 82.2 °F /  27.9 °C 60.1 °F /  15.6 °C 30in /  1015.9hPa ENE 11.1mph /  17.8km/h 19mph /  30.6km/h 47% 0in /  0.0mm
18:04 82 °F /  27.8 °C 59.5 °F /  15.3 °C 30in /  1015.9hPa NE 10.7mph /  17.2km/h 19mph /  30.6km/h 46.3% 0in /  0.0mm
18:09 82 °F /  27.8 °C 59.5 °F /  15.3 °C 30in /  1015.9hPa NE 10.4mph /  16.8km/h 19mph /  30.6km/h 46.5% 0in /  0.0mm
18:14 82 °F /  27.8 °C 59.5 °F /  15.3 °C 30in /  1015.9hPa NE 9.7mph /  15.6km/h 17.5mph /  28.2km/h 46.8% 0in /  0.0mm
18:19 81.9 °F /  27.7 °C 60.1 °F /  15.6 °C 30in /  1015.9hPa NE 9.6mph /  15.4km/h 17mph /  27.4km/h 47.8% 0in /  0.0mm
18:24 81.7 °F /  27.6 °C 60.4 °F /  15.8 °C 30in /  1015.7hPa NE 9.2mph /  14.8km/h 18.4mph /  29.6km/h 48.6% 0in /  0.0mm
18:29 81.3 °F /  27.4 °C 60.6 °F /  15.9 °C 30in /  1015.7hPa ENE 9.4mph /  15.1km/h 18.4mph /  29.6km/h 49.6% 0in /  0.0mm
18:34 81.3 °F /  27.4 °C 60.6 °F /  15.9 °C 30in /  1015.7hPa NE 10mph /  16.1km/h 18mph /  29km/h 49.5% 0in /  0.0mm
18:39 81.1 °F /  27.3 °C 60.8 °F /  16 °C 30in /  1015.7hPa NE 10mph /  16.1km/h 16mph /  25.7km/h 50% 0in /  0.0mm
18:44 81.3 °F /  27.4 °C 61.3 °F /  16.3 °C 30in /  1015.7hPa NE 10mph /  16.1km/h 16.1mph /  25.9km/h 50.7% 0in /  0.0mm
18:49 81.1 °F /  27.3 °C 61.7 °F /  16.5 °C 30in /  1015.7hPa ENE 10mph /  16.1km/h 21.3mph /  34.3km/h 51.5% 0in /  0.0mm
18:54 81 °F /  27.2 °C 60.8 °F /  16 °C 30in /  1015.6hPa NE 10mph /  16.1km/h 21mph /  33.8km/h 50.4% 0in /  0.0mm
18:59 81 °F /  27.2 °C 61.7 °F /  16.5 °C 30in /  1015.6hPa ENE 9.8mph /  15.8km/h 19mph /  30.6km/h 51.9% 0in /  0.0mm
19:04 81 °F /  27.2 °C 62.4 °F /  16.9 °C 30in /  1015.6hPa NE 9.2mph /  14.8km/h 19mph /  30.6km/h 53.4% 0in /  0.0mm
19:09 80.8 °F /  27.1 °C 63 °F /  17.2 °C 30in /  1015.6hPa ENE 9.3mph /  15km/h 18mph /  29km/h 54.9% 0in /  0.0mm
19:14 80.4 °F /  26.9 °C 63.3 °F /  17.4 °C 30in /  1015.6hPa NE 9.7mph /  15.6km/h 16mph /  25.7km/h 56.1% 0in /  0.0mm
19:19 80.2 °F /  26.8 °C 63.5 °F /  17.5 °C 30in /  1015.8hPa NE 9.2mph /  14.8km/h 14mph /  22.5km/h 56.9% 0in /  0.0mm
19:24 80.1 °F /  26.7 °C 63.5 °F /  17.5 °C 30in /  1015.8hPa NE 7.6mph /  12.2km/h 14mph /  22.5km/h 57% 0in /  0.0mm
19:29 79.9 °F /  26.6 °C 63.3 °F /  17.4 °C 30in /  1015.8hPa ENE 7.5mph /  12km/h 14mph /  22.5km/h 57% 0in /  0.0mm
19:34 79.5 °F /  26.4 °C 63.1 °F /  17.3 °C 30in /  1015.9hPa NE 6.9mph /  11.1km/h 13mph /  20.9km/h 57.3% 0in /  0.0mm
19:39 79.3 °F /  26.3 °C 63.5 °F /  17.5 °C 30in /  1015.9hPa NE 6.9mph /  11.1km/h 13mph /  20.9km/h 58.3% 0in /  0.0mm
19:44 79.3 °F /  26.3 °C 63.7 °F /  17.6 °C 30in /  1015.9hPa NE 6.9mph /  11.1km/h 12mph /  19.3km/h 59% 0in /  0.0mm
19:49 79.2 °F /  26.2 °C 63.7 °F /  17.6 °C 30in /  1016.0hPa NE 6.9mph /  11.1km/h 13mph /  20.9km/h 59% 0in /  0.0mm
19:54 79.2 °F /  26.2 °C 63.5 °F /  17.5 °C 30in /  1016.0hPa NE 6.9mph /  11.1km/h 13mph /  20.9km/h 59% 0in /  0.0mm
19:59 79 °F /  26.1 °C 63.3 °F /  17.4 °C 30in /  1016.0hPa NE 6.8mph /  10.9km/h 11mph /  17.7km/h 59% 0in /  0.0mm
20:04 78.8 °F /  26 °C 63.5 °F /  17.5 °C 30in /  1016.3hPa NE 6.4mph /  10.3km/h 10.4mph /  16.7km/h 59.5% 0in /  0.0mm
20:09 78.6 °F /  25.9 °C 63.7 °F /  17.6 °C 30in /  1016.3hPa NE 6.3mph /  10.1km/h 10mph /  16.1km/h 60% 0in /  0.0mm
20:14 78.6 °F /  25.9 °C 63.5 °F /  17.5 °C 30in /  1016.3hPa NE 5.9mph /  9.5km/h 11.5mph /  18.5km/h 60% 0in /  0.0mm
20:19 78.4 °F /  25.8 °C 63.7 °F /  17.6 °C 30in /  1016.6hPa NE 5.9mph /  9.5km/h 12mph /  19.3km/h 60.6% 0in /  0.0mm
20:24 78.4 °F /  25.8 °C 63.9 °F /  17.7 °C 30in /  1016.6hPa NE 5.9mph /  9.5km/h 11.5mph /  18.5km/h 61% 0in /  0.0mm
20:29 78.3 °F /  25.7 °C 64.2 °F /  17.9 °C 30in /  1016.6hPa ENE 5.8mph /  9.3km/h 12mph /  19.3km/h 61.9% 0in /  0.0mm
20:34 78.3 °F /  25.7 °C 64.2 °F /  17.9 °C 30in /  1016.6hPa NE 5.4mph /  8.7km/h 10mph /  16.1km/h 62.1% 0in /  0.0mm
20:39 78.1 °F /  25.6 °C 64.6 °F /  18.1 °C 30in /  1016.6hPa NE 5.2mph /  8.3km/h 9mph /  14.5km/h 63% 0in /  0.0mm
20:44 77.9 °F /  25.5 °C 64.6 °F /  18.1 °C 30in /  1016.6hPa NE 4.3mph /  6.9km/h 9.7mph /  15.6km/h 63.7% 0in /  0.0mm
20:49 77.7 °F /  25.4 °C 64.8 °F /  18.2 °C 30in /  1016.6hPa ENE 4.5mph /  7.3km/h 10.2mph /  16.4km/h 64.6% 0in /  0.0mm
20:54 77.5 °F /  25.3 °C 64.8 °F /  18.2 °C 30in /  1016.0hPa NNE 5.4mph /  8.7km/h 10.4mph /  16.7km/h 65% 0in /  0.0mm
20:59 77.5 °F /  25.3 °C 64.8 °F /  18.2 °C 30in /  1016.0hPa NE 4.8mph /  7.7km/h 8mph /  12.9km/h 65% 0in /  0.0mm
21:04 77.4 °F /  25.2 °C 64.8 °F /  18.2 °C 30in /  1016.7hPa NE 3.1mph /  5km/h 8.5mph /  13.7km/h 65.1% 0in /  0.0mm
21:09 77.4 °F /  25.2 °C 64.9 °F /  18.3 °C 30in /  1016.7hPa ENE 3.6mph /  5.8km/h 10.4mph /  16.7km/h 65.8% 0in /  0.0mm
21:14 77.4 °F /  25.2 °C 65.1 °F /  18.4 °C 30in /  1016.7hPa NE 5.4mph /  8.7km/h 10mph /  16.1km/h 66% 0in /  0.0mm
21:19 77.4 °F /  25.2 °C 65.1 °F /  18.4 °C 30in /  1016.7hPa NE 5.1mph /  8.2km/h 7mph /  11.3km/h 66% 0in /  0.0mm
21:24 77.2 °F /  25.1 °C 64.9 °F /  18.3 °C 30in /  1016.7hPa NE 4mph /  6.5km/h 7.4mph /  11.9km/h 66% 0in /  0.0mm
21:29 77.2 °F /  25.1 °C 65.1 °F /  18.4 °C 30in /  1016.7hPa NE 4mph /  6.5km/h 7.4mph /  11.9km/h 66.5% 0in /  0.0mm
21:34 77.2 °F /  25.1 °C 65.5 °F /  18.6 °C 30in /  1016.8hPa NE 4mph /  6.5km/h 7mph /  11.3km/h 67% 0in /  0.0mm
21:39 77 °F /  25 °C 65.3 °F /  18.5 °C 30in /  1016.8hPa NE 4mph /  6.5km/h 7mph /  11.3km/h 67% 0in /  0.0mm
21:44 77 °F /  25 °C 65.1 °F /  18.4 °C 30in /  1016.8hPa ENE 4mph /  6.5km/h 6mph /  9.7km/h 67% 0in /  0.0mm
21:49 77 °F /  25 °C 65.5 °F /  18.6 °C 30in /  1017.1hPa NE 3.7mph /  6km/h 5mph /  8km/h 68% 0in /  0.0mm
21:54 76.8 °F /  24.9 °C 65.5 °F /  18.6 °C 30in /  1017.1hPa NNE 2.9mph /  4.7km/h 5mph /  8km/h 68% 0in /  0.0mm
21:59 76.8 °F /  24.9 °C 65.5 °F /  18.6 °C 30in /  1017.1hPa North 2.7mph /  4.4km/h 5mph /  8km/h 68% 0in /  0.0mm
22:04 76.8 °F /  24.9 °C 65.5 °F /  18.6 °C 30in /  1017.3hPa NNE 2.4mph /  3.9km/h 5.9mph /  9.5km/h 68.1% 0in /  0.0mm
22:09 76.6 °F /  24.8 °C 65.7 °F /  18.7 °C 30in /  1017.3hPa North 2.5mph /  4km/h 6mph /  9.7km/h 69% 0in /  0.0mm
22:14 76.6 °F /  24.8 °C 65.7 °F /  18.7 °C 30in /  1017.3hPa NE 2.9mph /  4.7km/h 5mph /  8km/h 69% 0in /  0.0mm
22:19 76.6 °F /  24.8 °C 65.7 °F /  18.7 °C 30in /  1017.3hPa NE 2.9mph /  4.7km/h 5.4mph /  8.7km/h 69% 0in /  0.0mm
22:24 76.5 °F /  24.7 °C 65.7 °F /  18.7 °C 30in /  1017.3hPa NE 2.9mph /  4.7km/h 6mph /  9.7km/h 69.3% 0in /  0.0mm
22:29 76.5 °F /  24.7 °C 65.8 °F /  18.8 °C 30in /  1017.3hPa NE 2.9mph /  4.7km/h 6mph /  9.7km/h 70% 0in /  0.0mm
22:34 76.5 °F /  24.7 °C 65.8 °F /  18.8 °C 30in /  1017.4hPa NE 3.1mph /  5km/h 5mph /  8km/h 70% 0in /  0.0mm
22:39 76.5 °F /  24.7 °C 65.8 °F /  18.8 °C 30in /  1017.4hPa NE 2.9mph /  4.7km/h 5mph /  8km/h 70% 0in /  0.0mm
22:44 76.3 °F /  24.6 °C 66 °F /  18.9 °C 30in /  1017.4hPa NE 2.4mph /  3.9km/h 5mph /  8km/h 70.4% 0in /  0.0mm
22:49 76.3 °F /  24.6 °C 66.2 °F /  19 °C 30.1in /  1017.6hPa NE 2.5mph /  4.1km/h 5.9mph /  9.5km/h 71% 0in /  0.0mm
22:54 76.3 °F /  24.6 °C 66.2 °F /  19 °C 30.1in /  1017.6hPa NNE 3.1mph /  5km/h 6mph /  9.7km/h 71% 0in /  0.0mm
22:59 76.3 °F /  24.6 °C 66.4 °F /  19.1 °C 30.1in /  1017.6hPa NNE 2.9mph /  4.7km/h 5mph /  8km/h 71.6% 0in /  0.0mm
23:04 75.9 °F /  24.4 °C 66.4 °F /  19.1 °C 30.1in /  1017.8hPa North 2.4mph /  3.9km/h 5mph /  8km/h 72% 0in /  0.0mm
23:09 75.9 °F /  24.4 °C 66.2 °F /  19 °C 30.1in /  1017.8hPa North 2.2mph /  3.5km/h 5mph /  8km/h 72% 0in /  0.0mm
23:14 75.7 °F /  24.3 °C 66.2 °F /  19 °C 30.1in /  1017.8hPa NNE 1.4mph /  2.2km/h 5.2mph /  8.4km/h 72.1% 0in /  0.0mm
23:19 75.7 °F /  24.3 °C 66.6 °F /  19.2 °C 30.1in /  1017.8hPa NNO 1.5mph /  2.4km/h 5mph /  8km/h 73% 0in /  0.0mm
23:24 75.7 °F /  24.3 °C 66.4 °F /  19.1 °C 30.1in /  1017.8hPa NO 1.8mph /  2.9km/h   72.5% 0in /  0.0mm
23:29 75.7 °F /  24.3 °C 66 °F /  18.9 °C 30.1in /  1017.8hPa NO 1.4mph /  2.2km/h   72% 0in /  0.0mm
23:34 75.7 °F /  24.3 °C 66 °F /  18.9 °C 30.1in /  1018.0hPa Calm     72% 0in /  0.0mm
23:39 75.9 °F /  24.4 °C 66.2 °F /  19 °C 30.1in /  1018.0hPa Calm     72% 0in /  0.0mm
23:44 75.9 °F /  24.4 °C 66.2 °F /  19 °C 30.1in /  1018.0hPa Calm     72% 0in /  0.0mm
23:49 75.9 °F /  24.4 °C 66.2 °F /  19 °C 30.1in /  1018.0hPa ONO 0.3mph /  0.5km/h 4.6mph /  7.4km/h 71.9% 0in /  0.0mm
23:54 75.9 °F /  24.4 °C 66 °F /  18.9 °C 30.1in /  1017.9hPa ONO 1.4mph /  2.2km/h 5mph /  8km/h 71.4% 0in /  0.0mm
23:59 75.9 °F /  24.4 °C 66 °F /  18.9 °C 30.1in /  1017.9hPa OSO 1.5mph /  2.4km/h 4.6mph /  7.4km/h 71.3% 0in /  0.0mm
Murcia-Puente Tocinos, España
Compliments of Weather Underground - 3 mb

La estación de MeteoMurcia.com, publica sus datos en los siguientes proyectos:

Weather Underground PWS IMURCIAP2 Meteoclimatic www.awekas.at

W3Counter
Web Analytics